createdAt,value
2018-05-07T00:01:20.322Z,44.10
2018-05-07T00:03:50.433Z,44.10
2018-05-07T00:06:18.989Z,44.10
2018-05-07T00:08:47.290Z,43.80
2018-05-07T00:11:15.680Z,43.80
2018-05-07T00:13:44.768Z,45.00
2018-05-07T00:16:13.165Z,45.00
2018-05-07T00:18:41.452Z,45.30
2018-05-07T00:21:10.632Z,44.40
2018-05-07T00:23:39.019Z,44.40
2018-05-07T00:26:08.065Z,46.10
2018-05-07T00:28:37.700Z,46.10
2018-05-07T00:31:06.077Z,46.70
2018-05-07T00:33:35.223Z,45.70
2018-05-07T00:36:03.671Z,45.80
2018-05-07T00:38:32.253Z,46.10
2018-05-07T00:41:01.329Z,45.40
2018-05-07T00:43:29.660Z,45.40
2018-05-07T00:45:58.273Z,45.30
2018-05-07T00:48:26.729Z,45.40
2018-05-07T00:50:55.060Z,45.50
2018-05-07T00:53:24.169Z,45.40
2018-05-07T00:55:52.512Z,45.30
2018-05-07T00:58:20.783Z,45.60
2018-05-07T01:00:49.105Z,45.70
2018-05-07T01:03:18.146Z,46.00
2018-05-07T01:05:46.498Z,45.90
2018-05-07T01:08:14.794Z,46.50
2018-05-07T01:10:43.098Z,46.50
2018-05-07T01:13:11.463Z,46.80
2018-05-07T01:15:39.950Z,47.00
2018-05-07T01:18:08.369Z,47.00
2018-05-07T01:20:36.735Z,46.90
2018-05-07T01:23:06.058Z,47.80
2018-05-07T01:25:35.150Z,47.20
2018-05-07T01:28:04.402Z,47.20
2018-05-07T01:30:34.573Z,47.90
2018-05-07T01:33:04.910Z,47.10
2018-05-07T01:35:33.223Z,47.10
2018-05-07T01:38:01.508Z,47.10
2018-05-07T01:40:29.846Z,47.20
2018-05-07T01:42:58.197Z,47.00
2018-05-07T01:45:27.229Z,47.40
2018-05-07T01:47:55.617Z,47.40
2018-05-07T01:50:23.934Z,47.30
2018-05-07T01:52:52.248Z,47.20
2018-05-07T01:55:20.549Z,47.70
2018-05-07T01:57:48.845Z,47.30
2018-05-07T02:00:17.430Z,47.70
2018-05-07T02:02:45.735Z,47.50
2018-05-07T02:05:14.006Z,47.20
2018-05-07T02:07:42.329Z,46.70
2018-05-07T02:10:10.605Z,46.90
2018-05-07T02:12:38.907Z,46.70
2018-05-07T02:15:07.232Z,46.70
2018-05-07T02:17:35.535Z,47.00
2018-05-07T02:20:03.973Z,46.50
2018-05-07T02:22:33.059Z,47.00
2018-05-07T02:25:02.198Z,47.30
2018-05-07T02:27:30.528Z,47.30
2018-05-07T02:29:58.874Z,47.10
2018-05-07T02:32:27.193Z,47.20
2018-05-07T02:34:56.470Z,47.80
2018-05-07T02:37:25.086Z,47.70
2018-05-07T02:39:54.225Z,48.50
2018-05-07T02:42:22.535Z,48.50
2018-05-07T02:44:51.668Z,48.60
2018-05-07T02:47:19.966Z,48.50
2018-05-07T02:49:48.405Z,48.40
2018-05-07T02:52:17.479Z,48.50
2018-05-07T02:54:45.790Z,48.50
2018-05-07T02:57:16.042Z,48.40
2018-05-07T02:59:44.310Z,48.30
2018-05-07T03:02:12.752Z,48.70
2018-05-07T03:04:41.133Z,48.30
2018-05-07T03:07:09.485Z,48.50
2018-05-07T03:09:37.791Z,49.20
2018-05-07T03:12:06.365Z,48.60
2018-05-07T03:14:35.581Z,48.70
2018-05-07T03:17:04.803Z,48.50
2018-05-07T03:19:33.105Z,48.40
2018-05-07T03:22:01.397Z,48.60
2018-05-07T03:24:29.733Z,48.10
2018-05-07T03:26:58.188Z,48.30
2018-05-07T03:29:26.635Z,48.00
2018-05-07T03:31:54.937Z,48.40
2018-05-07T03:34:24.230Z,48.10
2018-05-07T03:36:53.490Z,48.10
2018-05-07T03:39:21.850Z,48.00
2018-05-07T03:41:50.133Z,47.70
2018-05-07T03:44:18.575Z,47.70
2018-05-07T03:46:47.624Z,47.70
2018-05-07T03:49:16.059Z,47.70
2018-05-07T03:51:45.310Z,48.60
2018-05-07T03:54:13.719Z,48.60
2018-05-07T03:56:42.785Z,47.90
2018-05-07T03:59:12.755Z,48.30
2018-05-07T04:01:41.211Z,48.10
2018-05-07T04:04:09.465Z,48.50
2018-05-07T04:06:37.779Z,48.40
2018-05-07T04:09:06.855Z,48.60
2018-05-07T04:11:35.152Z,48.50
2018-05-07T04:14:04.255Z,48.50
2018-05-07T04:16:50.074Z,48.50
2018-05-07T04:22:44.468Z,48.60
2018-05-07T04:25:12.770Z,48.80
2018-05-07T04:27:41.105Z,48.90
2018-05-07T04:30:09.424Z,49.00
2018-05-07T04:32:37.800Z,48.80
2018-05-07T04:35:06.190Z,49.10
2018-05-07T04:37:34.485Z,48.70
2018-05-07T04:40:02.811Z,48.40
2018-05-07T04:42:31.098Z,47.70
2018-05-07T04:44:59.416Z,48.60
2018-05-07T04:47:27.694Z,49.20
2018-05-07T04:49:55.986Z,49.60
2018-05-07T04:52:25.070Z,48.50
2018-05-07T04:54:54.136Z,48.60
2018-05-07T04:57:22.453Z,48.50
2018-05-07T04:59:51.664Z,48.30
2018-05-07T05:02:19.994Z,48.20
2018-05-07T05:04:48.620Z,48.10
2018-05-07T05:07:17.065Z,47.90
2018-05-07T05:09:46.194Z,47.50
2018-05-07T05:12:15.294Z,47.50
2018-05-07T05:14:44.531Z,47.30
2018-05-07T05:17:12.925Z,47.30
2018-05-07T05:19:41.288Z,47.80
2018-05-07T05:22:09.597Z,47.60
2018-05-07T05:24:37.903Z,47.60
2018-05-07T05:27:06.255Z,47.30
2018-05-07T05:29:35.438Z,46.80
2018-05-07T05:32:03.724Z,46.90
2018-05-07T05:34:32.041Z,46.70
2018-05-07T05:37:00.324Z,46.60
2018-05-07T05:39:28.746Z,46.50
2018-05-07T05:41:57.714Z,46.90
2018-05-07T05:44:26.036Z,46.80
2018-05-07T05:46:55.126Z,46.60
2018-05-07T05:49:23.429Z,46.30
2018-05-07T05:51:51.740Z,46.20
2018-05-07T05:54:20.120Z,46.10
2018-05-07T05:56:48.514Z,45.60
2018-05-07T05:59:16.837Z,45.40
2018-05-07T06:01:45.380Z,45.60
2018-05-07T06:04:13.797Z,45.80
2018-05-07T06:06:42.130Z,45.10
2018-05-07T06:09:11.762Z,44.30
2018-05-07T06:11:40.140Z,44.30
2018-05-07T06:14:09.595Z,44.00
2018-05-07T06:16:37.925Z,43.90
2018-05-07T06:19:06.215Z,42.80
2018-05-07T06:21:35.406Z,42.90
2018-05-07T06:24:04.639Z,42.50
2018-05-07T06:26:32.944Z,42.40
2018-05-07T06:29:01.234Z,42.40
2018-05-07T06:31:29.664Z,42.50
2018-05-07T06:33:58.096Z,42.20
2018-05-07T06:36:26.684Z,42.40
2018-05-07T06:38:56.189Z,42.50
2018-05-07T06:41:24.716Z,42.20
2018-05-07T06:43:53.116Z,42.20
2018-05-07T06:46:21.516Z,41.90
2018-05-07T06:48:49.921Z,41.90
2018-05-07T06:51:19.023Z,42.30
2018-05-07T06:53:48.076Z,41.20
2018-05-07T06:56:16.350Z,41.20
2018-05-07T06:58:45.800Z,41.20
2018-05-07T07:01:15.046Z,41.20
2018-05-07T07:03:43.480Z,41.20
2018-05-07T07:06:12.785Z,40.50
2018-05-07T07:08:42.000Z,40.70
2018-05-07T07:11:10.216Z,40.70
2018-05-07T07:13:38.580Z,40.30
2018-05-07T07:16:06.889Z,40.20
2018-05-07T07:18:35.316Z,40.30
2018-05-07T07:21:03.606Z,39.40
2018-05-07T07:23:32.095Z,40.10
2018-05-07T07:26:00.461Z,40.10
2018-05-07T07:28:28.904Z,39.90
2018-05-07T07:30:58.012Z,39.60
2018-05-07T07:33:26.383Z,39.60
2018-05-07T07:35:54.669Z,39.50
2018-05-07T07:38:23.141Z,39.20
2018-05-07T07:40:53.458Z,39.80
2018-05-07T07:43:22.672Z,39.20
2018-05-07T07:45:51.189Z,39.20
2018-05-07T07:48:19.462Z,39.50
2018-05-07T07:50:47.789Z,39.50
2018-05-07T07:53:17.660Z,38.70
2018-05-07T07:55:46.085Z,38.70
2018-05-07T07:58:15.342Z,38.40
2018-05-07T08:00:43.721Z,38.40
2018-05-07T08:03:12.109Z,37.60
2018-05-07T08:05:40.426Z,37.90
2018-05-07T08:08:09.011Z,38.70
2018-05-07T08:10:38.444Z,38.00
2018-05-07T08:13:09.038Z,38.20
2018-05-07T08:15:39.058Z,36.80
2018-05-07T08:18:09.265Z,38.00
2018-05-07T08:20:37.694Z,38.00
2018-05-07T08:23:05.978Z,37.90
2018-05-07T08:25:34.287Z,37.10
2018-05-07T08:28:02.731Z,37.30
2018-05-07T08:30:31.364Z,37.50
2018-05-07T08:33:00.511Z,37.30
2018-05-07T08:35:28.902Z,37.30
2018-05-07T08:37:57.217Z,37.60
2018-05-07T08:40:26.298Z,37.50
2018-05-07T08:42:54.643Z,37.50
2018-05-07T08:45:22.957Z,37.50
2018-05-07T08:47:51.266Z,37.70
2018-05-07T08:50:19.612Z,36.50
2018-05-07T08:52:48.761Z,36.50
2018-05-07T08:55:17.048Z,36.00
2018-05-07T08:57:45.335Z,35.80
2018-05-07T09:00:13.696Z,37.30
2018-05-07T09:02:42.131Z,37.50
2018-05-07T09:05:10.596Z,36.80
2018-05-07T09:07:39.931Z,36.70
2018-05-07T09:10:08.271Z,36.80
2018-05-07T09:12:36.556Z,37.30
2018-05-07T09:15:04.910Z,35.50
2018-05-07T09:17:33.308Z,36.30
2018-05-07T09:20:01.902Z,36.80
2018-05-07T09:22:31.005Z,36.10
2018-05-07T09:25:00.128Z,37.60
2018-05-07T09:27:28.397Z,37.60
2018-05-07T09:29:56.755Z,36.50
2018-05-07T09:32:25.312Z,35.30
2018-05-07T09:34:53.812Z,37.20
2018-05-07T09:37:22.913Z,35.50
2018-05-07T09:39:51.239Z,35.60
2018-05-07T09:42:19.636Z,35.50
2018-05-07T09:44:48.083Z,36.70
2018-05-07T09:47:16.415Z,36.00
2018-05-07T09:49:45.626Z,33.70
2018-05-07T09:52:14.135Z,33.80
2018-05-07T09:54:42.462Z,33.60
2018-05-07T09:57:10.958Z,34.30
2018-05-07T09:59:40.177Z,32.30
2018-05-07T10:02:08.498Z,32.30
2018-05-07T10:04:36.853Z,33.00
2018-05-07T10:07:05.256Z,34.10
2018-05-07T10:09:34.002Z,31.40
2018-05-07T10:12:02.389Z,29.30
2018-05-07T10:14:30.705Z,27.70
2018-05-07T10:17:00.255Z,27.80
2018-05-07T10:19:28.766Z,29.20
2018-05-07T10:21:57.255Z,28.60
2018-05-07T10:24:25.556Z,29.20
2018-05-07T10:26:54.226Z,29.10
2018-05-07T10:29:22.609Z,29.70
2018-05-07T10:31:51.165Z,30.70
2018-05-07T10:34:19.474Z,31.40
2018-05-07T10:36:47.805Z,31.10
2018-05-07T10:39:16.415Z,30.30
2018-05-07T10:41:44.907Z,31.60
2018-05-07T10:44:13.320Z,30.50
2018-05-07T10:46:43.576Z,31.00
2018-05-07T10:49:11.976Z,31.00
2018-05-07T10:51:40.441Z,31.70
2018-05-07T10:54:08.840Z,30.00
2018-05-07T10:56:37.358Z,29.70
2018-05-07T10:59:05.704Z,30.70
2018-05-07T11:01:34.104Z,30.00
2018-05-07T11:04:03.140Z,31.30
2018-05-07T11:06:31.496Z,31.30
2018-05-07T11:09:00.547Z,30.70
2018-05-07T11:11:28.906Z,30.70
2018-05-07T11:13:57.203Z,30.90
2018-05-07T11:16:25.541Z,30.70
2018-05-07T11:18:54.631Z,30.40
2018-05-07T11:21:23.761Z,30.00
2018-05-07T11:23:52.087Z,30.00
2018-05-07T11:26:20.362Z,30.10
2018-05-07T11:28:48.699Z,30.70
2018-05-07T11:31:17.047Z,31.60
2018-05-07T11:33:46.016Z,29.90
2018-05-07T11:36:15.136Z,29.40
2018-05-07T11:38:43.662Z,29.40
2018-05-07T11:41:11.951Z,29.50
2018-05-07T11:43:40.287Z,30.00
2018-05-07T11:46:08.602Z,28.50
2018-05-07T11:48:36.991Z,28.80
2018-05-07T11:51:05.537Z,29.10
2018-05-07T11:53:33.865Z,29.30
2018-05-07T11:56:02.240Z,29.60
2018-05-07T11:58:31.361Z,28.60
2018-05-07T12:00:59.725Z,28.60
2018-05-07T12:03:28.377Z,29.20
2018-05-07T12:05:56.902Z,28.90
2018-05-07T12:08:25.236Z,28.30
2018-05-07T12:10:53.796Z,28.70
2018-05-07T12:13:22.995Z,28.30
2018-05-07T12:15:52.719Z,27.30
2018-05-07T12:18:23.048Z,28.70
2018-05-07T12:20:52.789Z,28.10
2018-05-07T12:23:23.004Z,27.90
2018-05-07T12:25:51.362Z,27.80
2018-05-07T12:28:19.970Z,27.70
2018-05-07T12:30:49.043Z,26.80
2018-05-07T12:33:17.413Z,26.80
2018-05-07T12:35:45.831Z,26.60
2018-05-07T12:38:14.916Z,26.40
2018-05-07T12:40:44.033Z,27.00
2018-05-07T12:43:12.349Z,27.00
2018-05-07T12:45:40.666Z,26.40
2018-05-07T12:48:09.737Z,27.20
2018-05-07T12:50:38.193Z,26.70
2018-05-07T12:53:06.562Z,27.00
2018-05-07T12:55:34.971Z,26.90
2018-05-07T12:58:03.381Z,26.50
2018-05-07T13:00:32.636Z,26.50
2018-05-07T13:03:01.173Z,26.50
2018-05-07T13:05:30.289Z,26.80
2018-05-07T13:07:58.718Z,26.80
2018-05-07T13:10:27.017Z,26.50
2018-05-07T13:12:55.417Z,25.70
2018-05-07T13:15:24.477Z,26.10
2018-05-07T13:17:52.856Z,26.00
2018-05-07T13:20:21.213Z,25.70
2018-05-07T13:22:49.543Z,26.10
2018-05-07T13:25:19.617Z,26.10
2018-05-07T13:27:47.943Z,26.20
2018-05-07T13:30:16.435Z,25.90
2018-05-07T13:32:44.901Z,25.80
2018-05-07T13:35:13.327Z,25.30
2018-05-07T13:37:41.649Z,25.90
2018-05-07T13:40:10.869Z,25.60
2018-05-07T13:42:39.182Z,25.60
2018-05-07T13:45:07.624Z,24.90
2018-05-07T13:47:36.043Z,25.10
2018-05-07T13:50:04.437Z,25.20
2018-05-07T13:52:33.541Z,25.60
2018-05-07T13:55:02.751Z,24.70
2018-05-07T13:57:31.975Z,24.50
2018-05-07T14:00:00.516Z,24.40
2018-05-07T14:02:28.841Z,24.00
2018-05-07T14:04:57.179Z,25.10
2018-05-07T14:07:26.428Z,24.50
2018-05-07T14:09:54.967Z,24.50
2018-05-07T14:12:24.056Z,23.90
2018-05-07T14:14:53.192Z,23.70
2018-05-07T14:17:21.543Z,23.60
2018-05-07T14:19:50.666Z,23.40
2018-05-07T14:22:18.993Z,23.40
2018-05-07T14:24:47.392Z,23.60
2018-05-07T14:27:17.632Z,22.50
2018-05-07T14:29:45.973Z,22.40
2018-05-07T14:32:15.216Z,22.40
2018-05-07T14:34:43.543Z,22.40
2018-05-07T14:37:11.911Z,22.60
2018-05-07T14:39:40.315Z,22.60
2018-05-07T14:42:09.571Z,22.40
2018-05-07T14:44:38.148Z,22.40
2018-05-07T14:47:06.586Z,22.50
2018-05-07T14:49:35.764Z,22.40
2018-05-07T14:52:04.177Z,22.40
2018-05-07T14:54:32.624Z,22.30
2018-05-07T14:57:01.039Z,21.90
2018-05-07T14:59:29.496Z,21.70
2018-05-07T15:01:58.626Z,21.80
2018-05-07T15:04:27.008Z,21.80
2018-05-07T15:06:55.311Z,21.80
2018-05-07T15:09:24.442Z,22.10
2018-05-07T15:11:53.674Z,22.20
2018-05-07T15:14:25.247Z,22.20
2018-05-07T15:16:53.818Z,22.20
2018-05-07T15:19:22.127Z,22.10
2018-05-07T15:21:50.688Z,22.10
2018-05-07T15:24:19.145Z,22.20
2018-05-07T15:26:47.487Z,22.50
2018-05-07T15:29:15.975Z,21.90
2018-05-07T15:31:45.898Z,21.90
2018-05-07T15:34:16.238Z,21.60
2018-05-07T15:36:45.650Z,21.50
2018-05-07T15:39:14.022Z,21.60
2018-05-07T15:41:42.380Z,21.00
2018-05-07T15:44:11.514Z,20.30
2018-05-07T15:46:39.817Z,20.80
2018-05-07T15:49:08.189Z,19.90
2018-05-07T15:51:36.553Z,19.70
2018-05-07T15:54:04.878Z,19.30
2018-05-07T15:56:33.211Z,19.30
2018-05-07T15:59:01.553Z,19.40
2018-05-07T16:01:29.914Z,19.00
2018-05-07T16:03:59.254Z,18.30
2018-05-07T16:06:27.726Z,18.30
2018-05-07T16:08:56.173Z,18.30
2018-05-07T16:11:25.871Z,18.00
2018-05-07T16:13:54.146Z,17.80
2018-05-07T16:16:22.521Z,17.50
2018-05-07T16:18:50.886Z,17.40
2018-05-07T16:21:19.230Z,17.80
2018-05-07T16:23:47.720Z,18.30
2018-05-07T16:26:16.079Z,18.50
2018-05-07T16:28:44.637Z,18.20
2018-05-07T16:31:13.857Z,18.50
2018-05-07T16:33:42.113Z,18.30
2018-05-07T16:36:11.437Z,18.80
2018-05-07T16:38:39.877Z,18.80
2018-05-07T16:41:08.290Z,18.50
2018-05-07T16:43:36.813Z,18.40
2018-05-07T16:46:05.190Z,18.40
2018-05-07T16:48:33.666Z,18.40
2018-05-07T16:51:01.962Z,18.30
2018-05-07T16:53:30.373Z,18.30
2018-05-07T16:55:59.511Z,18.60
2018-05-07T16:58:27.904Z,18.60
2018-05-07T17:00:56.273Z,18.70
2018-05-07T17:03:24.917Z,18.20
2018-05-07T17:05:54.068Z,17.90
2018-05-07T17:08:22.610Z,17.80
2018-05-07T17:10:50.899Z,18.30
2018-05-07T17:13:19.301Z,18.30
2018-05-07T17:15:47.749Z,18.40
2018-05-07T17:18:16.378Z,18.40
2018-05-07T17:20:44.695Z,18.60
2018-05-07T17:23:13.858Z,18.40
2018-05-07T17:25:42.203Z,18.30
2018-05-07T17:28:10.653Z,18.60
2018-05-07T17:30:39.763Z,18.60
2018-05-07T17:33:08.074Z,18.70
2018-05-07T17:35:36.484Z,18.80
2018-05-07T17:38:05.015Z,19.10
2018-05-07T17:40:33.445Z,19.30
2018-05-07T17:43:03.745Z,19.30
2018-05-07T17:48:56.908Z,19.40
2018-05-07T17:51:26.010Z,19.60
2018-05-07T17:53:54.429Z,19.40
2018-05-07T17:56:22.823Z,19.60
2018-05-07T17:58:52.063Z,20.10
2018-05-07T18:01:20.394Z,20.10
2018-05-07T18:03:48.722Z,20.40
2018-05-07T18:06:17.092Z,21.20
2018-05-07T18:08:45.458Z,22.10
2018-05-07T18:11:13.796Z,23.00
2018-05-07T18:13:43.108Z,24.70
2018-05-07T18:16:11.475Z,24.40
2018-05-07T18:18:40.614Z,25.40
2018-05-07T18:21:08.990Z,25.40
2018-05-07T18:23:37.505Z,25.60
2018-05-07T18:26:05.871Z,25.80
2018-05-07T18:28:34.636Z,26.10
2018-05-07T18:31:02.969Z,26.40
2018-05-07T18:33:32.191Z,27.00
2018-05-07T18:36:00.676Z,26.40
2018-05-07T18:38:29.054Z,26.60
2018-05-07T18:40:58.568Z,26.90
2018-05-07T18:43:27.057Z,26.80
2018-05-07T18:45:55.393Z,26.80
2018-05-07T18:48:23.768Z,27.00
2018-05-07T18:50:52.369Z,27.00
2018-05-07T18:53:20.879Z,27.10
2018-05-07T18:55:49.395Z,27.20
2018-05-07T18:58:17.850Z,27.20
2018-05-07T19:00:46.391Z,27.60
2018-05-07T19:03:14.894Z,27.30
2018-05-07T19:05:43.285Z,27.50
2018-05-07T19:08:11.717Z,27.80
2018-05-07T19:10:41.093Z,28.00
2018-05-07T19:13:09.576Z,27.90
2018-05-07T19:15:38.932Z,28.00
2018-05-07T19:18:07.364Z,27.90
2018-05-07T19:20:36.796Z,28.20
2018-05-07T19:23:05.143Z,28.10
2018-05-07T19:25:34.291Z,28.30
2018-05-07T19:28:02.644Z,28.30
2018-05-07T19:30:30.971Z,28.40
2018-05-07T19:32:59.411Z,28.20
2018-05-07T19:35:27.791Z,28.50
2018-05-07T19:37:56.109Z,28.50
2018-05-07T19:40:24.479Z,28.70
2018-05-07T19:42:52.857Z,28.60
2018-05-07T19:45:21.297Z,28.70
2018-05-07T19:47:49.817Z,28.80
2018-05-07T19:50:18.236Z,29.00
2018-05-07T19:52:47.451Z,29.30
2018-05-07T19:55:16.061Z,29.20
2018-05-07T19:57:44.627Z,29.50
2018-05-07T20:00:13.183Z,29.50
2018-05-07T20:02:42.444Z,29.70
2018-05-07T20:05:10.881Z,29.70
2018-05-07T20:07:39.224Z,29.90
2018-05-07T20:10:08.348Z,30.00
2018-05-07T20:12:36.784Z,30.00
2018-05-07T20:15:05.204Z,30.00
2018-05-07T20:17:33.696Z,30.00
2018-05-07T20:20:02.279Z,31.00
2018-05-07T20:22:30.671Z,30.30
2018-05-07T20:24:59.106Z,30.40
2018-05-07T20:27:28.204Z,30.60
2018-05-07T20:29:57.365Z,30.50
2018-05-07T20:32:25.725Z,30.50
2018-05-07T20:34:54.209Z,30.60
2018-05-07T20:37:22.761Z,30.70
2018-05-07T20:39:51.978Z,30.80
2018-05-07T20:42:20.365Z,30.80
2018-05-07T20:44:48.694Z,30.80
2018-05-07T20:47:16.997Z,31.00
2018-05-07T20:49:45.373Z,31.70
2018-05-07T20:52:14.254Z,31.20
2018-05-07T20:54:43.429Z,31.10
2018-05-07T20:57:12.629Z,31.30
2018-05-07T20:59:41.828Z,31.50
2018-05-07T21:02:10.149Z,31.50
2018-05-07T21:04:38.498Z,31.40
2018-05-07T21:07:07.638Z,31.50
2018-05-07T21:09:36.141Z,31.40
2018-05-07T21:12:04.455Z,31.50
2018-05-07T21:14:33.568Z,31.30
2018-05-07T21:17:01.939Z,31.30
2018-05-07T21:19:30.310Z,31.50
2018-05-07T21:21:59.591Z,31.60
2018-05-07T21:24:28.719Z,31.70
2018-05-07T21:26:57.948Z,31.70
2018-05-07T21:29:26.489Z,31.70
2018-05-07T21:31:55.699Z,31.70
2018-05-07T21:34:24.045Z,31.70
2018-05-07T21:36:52.568Z,32.00
2018-05-07T21:39:21.080Z,32.00
2018-05-07T21:41:49.409Z,32.20
2018-05-07T21:44:18.485Z,32.70
2018-05-07T21:46:46.788Z,32.70
2018-05-07T21:49:15.193Z,32.50
2018-05-07T21:51:43.874Z,32.50
2018-05-07T21:54:12.213Z,32.90
2018-05-07T21:56:41.348Z,33.50
2018-05-07T21:59:09.658Z,33.60
2018-05-07T22:01:38.206Z,33.70
2018-05-07T22:04:06.553Z,33.90
2018-05-07T22:06:35.668Z,34.00
2018-05-07T22:09:04.213Z,34.00
2018-05-07T22:11:32.553Z,33.80
2018-05-07T22:14:00.933Z,34.00
2018-05-07T22:16:29.309Z,33.80
2018-05-07T22:18:57.864Z,33.80
2018-05-07T22:21:26.172Z,33.90
2018-05-07T22:23:54.715Z,34.10
2018-05-07T22:26:23.879Z,34.80
2018-05-07T22:28:52.303Z,34.80
2018-05-07T22:31:20.648Z,34.90
2018-05-07T22:33:49.710Z,35.70
2018-05-07T22:36:18.190Z,35.60
2018-05-07T22:38:46.553Z,35.90
2018-05-07T22:41:14.905Z,36.30
2018-05-07T22:43:44.718Z,36.20
2018-05-07T22:46:13.035Z,35.90
2018-05-07T22:48:41.386Z,36.20
2018-05-07T22:51:09.692Z,35.90
2018-05-07T22:53:38.004Z,35.80
2018-05-07T22:56:07.092Z,36.00
2018-05-07T22:58:35.411Z,36.10
2018-05-07T23:01:03.833Z,35.80
2018-05-07T23:03:32.168Z,36.00
2018-05-07T23:06:00.558Z,35.70
2018-05-07T23:08:28.919Z,35.90
2018-05-07T23:10:57.369Z,36.00
2018-05-07T23:13:27.532Z,36.60
2018-05-07T23:15:56.112Z,36.60
2018-05-07T23:18:24.415Z,36.80
2018-05-07T23:20:52.673Z,36.90
2018-05-07T23:23:21.054Z,37.30
2018-05-07T23:25:49.586Z,37.10
2018-05-07T23:28:17.989Z,36.80
2018-05-07T23:30:46.442Z,36.90
2018-05-07T23:33:14.771Z,36.90
2018-05-07T23:35:43.068Z,36.90
2018-05-07T23:38:11.374Z,37.00
2018-05-07T23:40:40.519Z,37.00
2018-05-07T23:43:09.803Z,36.80
2018-05-07T23:45:38.198Z,36.70
2018-05-07T23:48:06.677Z,37.40
2018-05-07T23:50:35.013Z,37.30
2018-05-07T23:53:04.263Z,37.40
2018-05-07T23:55:32.617Z,37.30
2018-05-07T23:58:00.933Z,37.20
